sensor_id;sensor_type;location;lat;lon;timestamp;temperature;humidity
80743;SHT31;70142;50.894;6.052;2023-11-21T00:00:33;9.30;87.47
80743;SHT31;70142;50.894;6.052;2023-11-21T00:03:06;9.31;87.41
80743;SHT31;70142;50.894;6.052;2023-11-21T00:05:39;9.28;87.63
80743;SHT31;70142;50.894;6.052;2023-11-21T00:08:13;9.28;87.65
80743;SHT31;70142;50.894;6.052;2023-11-21T00:10:47;9.28;87.67
80743;SHT31;70142;50.894;6.052;2023-11-21T00:13:21;9.14;88.04
80743;SHT31;70142;50.894;6.052;2023-11-21T00:15:54;9.16;88.26
80743;SHT31;70142;50.894;6.052;2023-11-21T00:18:27;9.16;88.07
80743;SHT31;70142;50.894;6.052;2023-11-21T00:21:01;9.09;88.23
80743;SHT31;70142;50.894;6.052;2023-11-21T00:23:35;9.14;88.20
80743;SHT31;70142;50.894;6.052;2023-11-21T00:26:10;9.14;88.00
80743;SHT31;70142;50.894;6.052;2023-11-21T00:28:43;9.30;87.66
80743;SHT31;70142;50.894;6.052;2023-11-21T00:31:17;9.30;87.51
80743;SHT31;70142;50.894;6.052;2023-11-21T00:33:50;9.34;87.19
80743;SHT31;70142;50.894;6.052;2023-11-21T00:36:24;9.44;86.95
80743;SHT31;70142;50.894;6.052;2023-11-21T00:38:58;9.44;86.74
80743;SHT31;70142;50.894;6.052;2023-11-21T00:41:32;9.45;86.59
80743;SHT31;70142;50.894;6.052;2023-11-21T00:44:05;9.52;86.56
80743;SHT31;70142;50.894;6.052;2023-11-21T00:46:39;9.57;86.36
80743;SHT31;70142;50.894;6.052;2023-11-21T00:49:14;9.57;86.04
80743;SHT31;70142;50.894;6.052;2023-11-21T00:51:47;9.44;86.29
80743;SHT31;70142;50.894;6.052;2023-11-21T00:54:21;9.47;86.43
80743;SHT31;70142;50.894;6.052;2023-11-21T00:56:56;9.44;86.56
80743;SHT31;70142;50.894;6.052;2023-11-21T00:59:29;9.47;86.50
80743;SHT31;70142;50.894;6.052;2023-11-21T01:02:03;9.51;86.12
80743;SHT31;70142;50.894;6.052;2023-11-21T01:04:37;9.51;86.11
80743;SHT31;70142;50.894;6.052;2023-11-21T01:07:10;9.47;86.16
80743;SHT31;70142;50.894;6.052;2023-11-21T01:09:44;9.44;86.24
80743;SHT31;70142;50.894;6.052;2023-11-21T01:12:19;9.37;86.29
80743;SHT31;70142;50.894;6.052;2023-11-21T01:14:52;9.33;86.52
80743;SHT31;70142;50.894;6.052;2023-11-21T01:17:25;9.31;86.83
80743;SHT31;70142;50.894;6.052;2023-11-21T01:19:59;9.33;86.86
80743;SHT31;70142;50.894;6.052;2023-11-21T01:22:32;9.38;86.69
80743;SHT31;70142;50.894;6.052;2023-11-21T01:25:06;9.37;86.56
80743;SHT31;70142;50.894;6.052;2023-11-21T01:27:40;9.37;86.66
80743;SHT31;70142;50.894;6.052;2023-11-21T01:30:14;9.38;86.60
80743;SHT31;70142;50.894;6.052;2023-11-21T01:32:48;9.41;86.45
80743;SHT31;70142;50.894;6.052;2023-11-21T01:35:22;9.38;86.65
80743;SHT31;70142;50.894;6.052;2023-11-21T01:37:57;9.43;86.77
80743;SHT31;70142;50.894;6.052;2023-11-21T01:40:30;9.48;86.45
80743;SHT31;70142;50.894;6.052;2023-11-21T01:43:05;9.48;86.52
80743;SHT31;70142;50.894;6.052;2023-11-21T01:45:40;9.55;86.33
80743;SHT31;70142;50.894;6.052;2023-11-21T01:48:14;9.59;86.08
80743;SHT31;70142;50.894;6.052;2023-11-21T01:50:49;9.58;86.28
80743;SHT31;70142;50.894;6.052;2023-11-21T01:53:24;9.67;86.00
80743;SHT31;70142;50.894;6.052;2023-11-21T01:55:58;9.73;85.74
80743;SHT31;70142;50.894;6.052;2023-11-21T01:58:35;9.74;85.43
80743;SHT31;70142;50.894;6.052;2023-11-21T02:01:09;9.81;85.22
80743;SHT31;70142;50.894;6.052;2023-11-21T02:03:42;9.77;85.41
80743;SHT31;70142;50.894;6.052;2023-11-21T02:06:16;9.77;85.31
80743;SHT31;70142;50.894;6.052;2023-11-21T02:08:50;9.74;85.38
80743;SHT31;70142;50.894;6.052;2023-11-21T02:11:23;9.78;85.21
80743;SHT31;70142;50.894;6.052;2023-11-21T02:14:00;9.64;85.42
80743;SHT31;70142;50.894;6.052;2023-11-21T02:16:33;9.58;85.80
80743;SHT31;70142;50.894;6.052;2023-11-21T02:19:07;9.55;85.95
80743;SHT31;70142;50.894;6.052;2023-11-21T02:21:45;9.52;86.09
80743;SHT31;70142;50.894;6.052;2023-11-21T02:24:22;9.59;86.10
80743;SHT31;70142;50.894;6.052;2023-11-21T02:26:55;9.61;85.95
80743;SHT31;70142;50.894;6.052;2023-11-21T02:29:28;9.62;85.87
80743;SHT31;70142;50.894;6.052;2023-11-21T02:32:01;9.68;85.57
80743;SHT31;70142;50.894;6.052;2023-11-21T02:34:35;9.74;85.55
80743;SHT31;70142;50.894;6.052;2023-11-21T02:37:10;9.82;85.03
80743;SHT31;70142;50.894;6.052;2023-11-21T02:39:44;9.86;85.13
80743;SHT31;70142;50.894;6.052;2023-11-21T02:42:18;9.88;85.05
80743;SHT31;70142;50.894;6.052;2023-11-21T02:44:52;9.86;84.98
80743;SHT31;70142;50.894;6.052;2023-11-21T02:47:25;9.89;84.80
80743;SHT31;70142;50.894;6.052;2023-11-21T02:49:58;9.84;85.12
80743;SHT31;70142;50.894;6.052;2023-11-21T02:52:31;9.86;84.97
80743;SHT31;70142;50.894;6.052;2023-11-21T02:55:07;9.86;85.00
80743;SHT31;70142;50.894;6.052;2023-11-21T02:57:41;9.96;84.79
80743;SHT31;70142;50.894;6.052;2023-11-21T03:00:17;9.95;84.61
80743;SHT31;70142;50.894;6.052;2023-11-21T03:02:50;9.98;84.57
80743;SHT31;70142;50.894;6.052;2023-11-21T03:05:24;9.89;84.76
80743;SHT31;70142;50.894;6.052;2023-11-21T03:07:57;10.03;84.54
80743;SHT31;70142;50.894;6.052;2023-11-21T03:10:32;10.05;84.09
80743;SHT31;70142;50.894;6.052;2023-11-21T03:13:06;10.05;84.16
80743;SHT31;70142;50.894;6.052;2023-11-21T03:15:40;10.12;84.07
80743;SHT31;70142;50.894;6.052;2023-11-21T03:18:14;10.06;84.29
80743;SHT31;70142;50.894;6.052;2023-11-21T03:20:52;10.06;84.12
80743;SHT31;70142;50.894;6.052;2023-11-21T03:23:26;9.96;84.57
80743;SHT31;70142;50.894;6.052;2023-11-21T03:26:00;9.91;84.74
80743;SHT31;70142;50.894;6.052;2023-11-21T03:28:34;9.92;84.79
80743;SHT31;70142;50.894;6.052;2023-11-21T03:31:07;9.98;84.95
80743;SHT31;70142;50.894;6.052;2023-11-21T03:33:41;10.06;84.29
80743;SHT31;70142;50.894;6.052;2023-11-21T03:36:14;10.10;84.21
80743;SHT31;70142;50.894;6.052;2023-11-21T03:38:48;10.05;84.05
80743;SHT31;70142;50.894;6.052;2023-11-21T03:41:23;9.98;84.37
80743;SHT31;70142;50.894;6.052;2023-11-21T03:43:57;9.92;84.65
80743;SHT31;70142;50.894;6.052;2023-11-21T03:46:30;9.89;84.95
80743;SHT31;70142;50.894;6.052;2023-11-21T03:49:03;9.88;84.98
80743;SHT31;70142;50.894;6.052;2023-11-21T03:51:37;9.86;84.97
80743;SHT31;70142;50.894;6.052;2023-11-21T03:54:12;9.82;85.33
80743;SHT31;70142;50.894;6.052;2023-11-21T03:56:47;9.81;85.70
80743;SHT31;70142;50.894;6.052;2023-11-21T03:59:20;9.85;85.53
80743;SHT31;70142;50.894;6.052;2023-11-21T04:01:56;9.98;85.18
80743;SHT31;70142;50.894;6.052;2023-11-21T04:04:29;9.95;85.30
80743;SHT31;70142;50.894;6.052;2023-11-21T04:07:03;10.09;84.69
80743;SHT31;70142;50.894;6.052;2023-11-21T04:09:36;10.12;84.25
80743;SHT31;70142;50.894;6.052;2023-11-21T04:12:11;10.16;83.92
80743;SHT31;70142;50.894;6.052;2023-11-21T04:14:44;10.09;84.29
80743;SHT31;70142;50.894;6.052;2023-11-21T04:17:18;10.09;84.29
80743;SHT31;70142;50.894;6.052;2023-11-21T04:19:52;10.12;84.08
80743;SHT31;70142;50.894;6.052;2023-11-21T04:22:25;10.16;83.71
80743;SHT31;70142;50.894;6.052;2023-11-21T04:24:58;10.10;84.03
80743;SHT31;70142;50.894;6.052;2023-11-21T04:27:32;10.12;83.95
80743;SHT31;70142;50.894;6.052;2023-11-21T04:30:07;10.05;84.15
80743;SHT31;70142;50.894;6.052;2023-11-21T04:32:43;9.94;84.87
80743;SHT31;70142;50.894;6.052;2023-11-21T04:35:17;10.01;84.69
80743;SHT31;70142;50.894;6.052;2023-11-21T04:37:50;10.18;83.94
80743;SHT31;70142;50.894;6.052;2023-11-21T04:40:24;10.28;83.41
80743;SHT31;70142;50.894;6.052;2023-11-21T04:43:00;10.22;83.98
80743;SHT31;70142;50.894;6.052;2023-11-21T04:45:33;10.19;84.04
80743;SHT31;70142;50.894;6.052;2023-11-21T04:48:07;10.06;84.33
80743;SHT31;70142;50.894;6.052;2023-11-21T04:50:41;10.15;84.32
80743;SHT31;70142;50.894;6.052;2023-11-21T04:53:14;10.22;84.22
80743;SHT31;70142;50.894;6.052;2023-11-21T04:55:49;10.18;84.36
80743;SHT31;70142;50.894;6.052;2023-11-21T04:58:24;10.18;84.33
80743;SHT31;70142;50.894;6.052;2023-11-21T05:00:57;10.28;83.41
80743;SHT31;70142;50.894;6.052;2023-11-21T05:03:30;10.26;83.37
80743;SHT31;70142;50.894;6.052;2023-11-21T05:06:04;10.19;83.81
80743;SHT31;70142;50.894;6.052;2023-11-21T05:08:38;10.16;83.52
80743;SHT31;70142;50.894;6.052;2023-11-21T05:11:11;10.02;84.17
80743;SHT31;70142;50.894;6.052;2023-11-21T05:13:45;10.01;84.29
80743;SHT31;70142;50.894;6.052;2023-11-21T05:16:19;9.99;84.32
80743;SHT31;70142;50.894;6.052;2023-11-21T05:18:52;10.03;84.20
80743;SHT31;70142;50.894;6.052;2023-11-21T05:21:28;10.06;84.29
80743;SHT31;70142;50.894;6.052;2023-11-21T05:24:03;10.09;84.37
80743;SHT31;70142;50.894;6.052;2023-11-21T05:26:37;10.10;83.87
80743;SHT31;70142;50.894;6.052;2023-11-21T05:29:12;10.08;84.18
80743;SHT31;70142;50.894;6.052;2023-11-21T05:31:45;10.10;83.88
80743;SHT31;70142;50.894;6.052;2023-11-21T05:34:18;10.09;83.45
80743;SHT31;70142;50.894;6.052;2023-11-21T05:36:54;9.99;84.23
80743;SHT31;70142;50.894;6.052;2023-11-21T05:39:30;10.02;84.20
80743;SHT31;70142;50.894;6.052;2023-11-21T05:42:04;10.01;84.31
80743;SHT31;70142;50.894;6.052;2023-11-21T05:44:41;10.02;84.16
80743;SHT31;70142;50.894;6.052;2023-11-21T05:47:15;10.02;84.33
80743;SHT31;70142;50.894;6.052;2023-11-21T05:49:48;9.98;84.73
80743;SHT31;70142;50.894;6.052;2023-11-21T05:52:23;10.05;84.87
80743;SHT31;70142;50.894;6.052;2023-11-21T05:54:59;10.09;84.52
80743;SHT31;70142;50.894;6.052;2023-11-21T05:57:33;10.16;84.25
80743;SHT31;70142;50.894;6.052;2023-11-21T06:00:11;10.30;83.75
80743;SHT31;70142;50.894;6.052;2023-11-21T06:02:50;10.35;83.33
80743;SHT31;70142;50.894;6.052;2023-11-21T06:05:26;10.35;83.25
80743;SHT31;70142;50.894;6.052;2023-11-21T06:07:59;10.29;83.68
80743;SHT31;70142;50.894;6.052;2023-11-21T06:10:33;10.26;83.86
80743;SHT31;70142;50.894;6.052;2023-11-21T06:13:06;10.26;83.77
80743;SHT31;70142;50.894;6.052;2023-11-21T06:15:40;10.28;83.92
80743;SHT31;70142;50.894;6.052;2023-11-21T06:18:16;10.36;83.59
80743;SHT31;70142;50.894;6.052;2023-11-21T06:20:51;10.42;83.19
80743;SHT31;70142;50.894;6.052;2023-11-21T06:23:25;10.39;83.26
80743;SHT31;70142;50.894;6.052;2023-11-21T06:25:58;10.35;83.71
80743;SHT31;70142;50.894;6.052;2023-11-21T06:28:31;10.30;83.85
80743;SHT31;70142;50.894;6.052;2023-11-21T06:31:09;10.29;83.76
80743;SHT31;70142;50.894;6.052;2023-11-21T06:33:42;10.32;83.75
80743;SHT31;70142;50.894;6.052;2023-11-21T06:36:15;10.23;84.43
80743;SHT31;70142;50.894;6.052;2023-11-21T06:38:49;10.28;84.04
80743;SHT31;70142;50.894;6.052;2023-11-21T06:41:22;10.22;84.15
80743;SHT31;70142;50.894;6.052;2023-11-21T06:43:55;10.20;84.39
80743;SHT31;70142;50.894;6.052;2023-11-21T06:46:32;10.23;84.24
80743;SHT31;70142;50.894;6.052;2023-11-21T06:49:05;10.13;84.55
80743;SHT31;70142;50.894;6.052;2023-11-21T06:51:39;10.08;85.00
80743;SHT31;70142;50.894;6.052;2023-11-21T06:54:12;10.02;85.24
80743;SHT31;70142;50.894;6.052;2023-11-21T06:56:46;10.08;85.29
80743;SHT31;70142;50.894;6.052;2023-11-21T06:59:20;10.08;85.58
80743;SHT31;70142;50.894;6.052;2023-11-21T07:01:54;10.15;85.46
80743;SHT31;70142;50.894;6.052;2023-11-21T07:04:30;10.10;85.58
80743;SHT31;70142;50.894;6.052;2023-11-21T07:07:04;10.06;85.56
80743;SHT31;70142;50.894;6.052;2023-11-21T07:09:41;10.12;85.56
80743;SHT31;70142;50.894;6.052;2023-11-21T07:12:14;10.15;85.76
80743;SHT31;70142;50.894;6.052;2023-11-21T07:14:47;10.12;85.38
80743;SHT31;70142;50.894;6.052;2023-11-21T07:17:22;9.99;86.00
80743;SHT31;70142;50.894;6.052;2023-11-21T07:19:56;10.05;86.12
80743;SHT31;70142;50.894;6.052;2023-11-21T07:22:29;10.02;86.05
80743;SHT31;70142;50.894;6.052;2023-11-21T07:25:03;10.06;86.31
80743;SHT31;70142;50.894;6.052;2023-11-21T07:27:36;10.18;86.01
80743;SHT31;70142;50.894;6.052;2023-11-21T07:30:11;10.29;85.81
80743;SHT31;70142;50.894;6.052;2023-11-21T07:32:46;10.26;85.10
80743;SHT31;70142;50.894;6.052;2023-11-21T07:35:19;10.26;85.56
80743;SHT31;70142;50.894;6.052;2023-11-21T07:37:55;10.40;84.97
80743;SHT31;70142;50.894;6.052;2023-11-21T07:40:29;10.39;84.58
80743;SHT31;70142;50.894;6.052;2023-11-21T07:43:03;10.30;84.98
80743;SHT31;70142;50.894;6.052;2023-11-21T07:45:39;10.39;84.90
80743;SHT31;70142;50.894;6.052;2023-11-21T07:48:17;10.35;84.69
80743;SHT31;70142;50.894;6.052;2023-11-21T07:50:50;10.36;85.29
80743;SHT31;70142;50.894;6.052;2023-11-21T07:53:24;10.36;85.10
80743;SHT31;70142;50.894;6.052;2023-11-21T07:56:04;10.43;84.73
80743;SHT31;70142;50.894;6.052;2023-11-21T07:58:37;10.50;84.52
80743;SHT31;70142;50.894;6.052;2023-11-21T08:01:10;10.57;84.33
80743;SHT31;70142;50.894;6.052;2023-11-21T08:03:45;10.64;84.02
80743;SHT31;70142;50.894;6.052;2023-11-21T08:06:19;10.66;84.07
80743;SHT31;70142;50.894;6.052;2023-11-21T08:08:52;10.73;84.30
80743;SHT31;70142;50.894;6.052;2023-11-21T08:11:25;10.79;83.87
80743;SHT31;70142;50.894;6.052;2023-11-21T08:14:01;10.84;83.57
80743;SHT31;70142;50.894;6.052;2023-11-21T08:16:34;10.81;83.94
80743;SHT31;70142;50.894;6.052;2023-11-21T08:19:09;10.81;83.98
80743;SHT31;70142;50.894;6.052;2023-11-21T08:21:43;10.87;83.85
80743;SHT31;70142;50.894;6.052;2023-11-21T08:24:17;10.96;83.82
80743;SHT31;70142;50.894;6.052;2023-11-21T08:26:50;10.94;83.34
80743;SHT31;70142;50.894;6.052;2023-11-21T08:29:24;10.85;83.14
80743;SHT31;70142;50.894;6.052;2023-11-21T08:31:57;10.73;83.42
80743;SHT31;70142;50.894;6.052;2023-11-21T08:34:33;10.57;84.07
80743;SHT31;70142;50.894;6.052;2023-11-21T08:37:06;10.57;84.44
80743;SHT31;70142;50.894;6.052;2023-11-21T08:39:39;10.67;84.99
80743;SHT31;70142;50.894;6.052;2023-11-21T08:42:14;10.80;84.64
80743;SHT31;70142;50.894;6.052;2023-11-21T08:44:47;10.91;84.63
80743;SHT31;70142;50.894;6.052;2023-11-21T08:47:20;11.14;83.45
80743;SHT31;70142;50.894;6.052;2023-11-21T08:49:57;11.21;82.41
80743;SHT31;70142;50.894;6.052;2023-11-21T08:52:31;11.20;83.54
80743;SHT31;70142;50.894;6.052;2023-11-21T08:55:05;11.21;82.94
80743;SHT31;70142;50.894;6.052;2023-11-21T08:57:44;11.22;82.43
80743;SHT31;70142;50.894;6.052;2023-11-21T09:00:17;11.07;82.67
80743;SHT31;70142;50.894;6.052;2023-11-21T09:02:50;11.11;83.13
80743;SHT31;70142;50.894;6.052;2023-11-21T09:05:25;11.14;83.41
80743;SHT31;70142;50.894;6.052;2023-11-21T09:07:58;11.07;82.69
80743;SHT31;70142;50.894;6.052;2023-11-21T09:10:31;10.96;83.07
80743;SHT31;70142;50.894;6.052;2023-11-21T09:13:05;11.04;83.96
80743;SHT31;70142;50.894;6.052;2023-11-21T09:15:42;11.04;82.96
80743;SHT31;70142;50.894;6.052;2023-11-21T09:18:18;10.91;83.07
80743;SHT31;70142;50.894;6.052;2023-11-21T09:20:53;10.74;83.97
80743;SHT31;70142;50.894;6.052;2023-11-21T09:23:26;10.74;84.17
80743;SHT31;70142;50.894;6.052;2023-11-21T09:25:59;10.83;84.12
80743;SHT31;70142;50.894;6.052;2023-11-21T09:28:33;10.93;83.96
80743;SHT31;70142;50.894;6.052;2023-11-21T09:31:06;10.99;83.46
80743;SHT31;70142;50.894;6.052;2023-11-21T09:33:41;11.10;83.57
80743;SHT31;70142;50.894;6.052;2023-11-21T09:36:16;11.18;83.01
80743;SHT31;70142;50.894;6.052;2023-11-21T09:38:49;11.30;82.97
80743;SHT31;70142;50.894;6.052;2023-11-21T09:41:31;11.42;81.97
80743;SHT31;70142;50.894;6.052;2023-11-21T09:44:09;11.48;81.75
80743;SHT31;70142;50.894;6.052;2023-11-21T09:46:48;11.58;81.99
80743;SHT31;70142;50.894;6.052;2023-11-21T09:49:23;11.69;82.13
80743;SHT31;70142;50.894;6.052;2023-11-21T09:52:01;11.59;80.82
80743;SHT31;70142;50.894;6.052;2023-11-21T09:54:36;11.45;82.61
80743;SHT31;70142;50.894;6.052;2023-11-21T09:57:09;11.58;82.27
80743;SHT31;70142;50.894;6.052;2023-11-21T09:59:43;11.63;81.23
80743;SHT31;70142;50.894;6.052;2023-11-21T10:02:17;11.66;80.51
80743;SHT31;70142;50.894;6.052;2023-11-21T10:04:53;11.82;81.05
80743;SHT31;70142;50.894;6.052;2023-11-21T10:07:28;11.79;81.50
80743;SHT31;70142;50.894;6.052;2023-11-21T10:10:05;11.93;80.94
80743;SHT31;70142;50.894;6.052;2023-11-21T10:12:43;11.86;80.42
80743;SHT31;70142;50.894;6.052;2023-11-21T10:15:22;11.75;81.72
80743;SHT31;70142;50.894;6.052;2023-11-21T10:17:57;11.72;81.01
80743;SHT31;70142;50.894;6.052;2023-11-21T10:20:31;11.62;81.49
80743;SHT31;70142;50.894;6.052;2023-11-21T10:23:07;11.66;82.09
80743;SHT31;70142;50.894;6.052;2023-11-21T10:25:43;11.78;81.93
80743;SHT31;70142;50.894;6.052;2023-11-21T10:28:16;11.95;80.78
80743;SHT31;70142;50.894;6.052;2023-11-21T10:30:52;11.87;81.26
80743;SHT31;70142;50.894;6.052;2023-11-21T10:33:28;11.81;81.62
80743;SHT31;70142;50.894;6.052;2023-11-21T10:36:02;11.85;81.70
80743;SHT31;70142;50.894;6.052;2023-11-21T10:38:42;11.92;80.94
80743;SHT31;70142;50.894;6.052;2023-11-21T10:41:18;12.06;80.72
80743;SHT31;70142;50.894;6.052;2023-11-21T10:43:53;12.20;80.23
80743;SHT31;70142;50.894;6.052;2023-11-21T10:46:27;12.26;80.23
80743;SHT31;70142;50.894;6.052;2023-11-21T10:49:02;12.33;79.99
80743;SHT31;70142;50.894;6.052;2023-11-21T10:51:35;12.15;79.47
80743;SHT31;70142;50.894;6.052;2023-11-21T10:54:10;12.13;81.63
80743;SHT31;70142;50.894;6.052;2023-11-21T10:56:45;12.20;81.42
80743;SHT31;70142;50.894;6.052;2023-11-21T10:59:19;12.23;79.93
80743;SHT31;70142;50.894;6.052;2023-11-21T11:01:54;12.15;81.28
80743;SHT31;70142;50.894;6.052;2023-11-21T11:04:34;12.20;81.25
80743;SHT31;70142;50.894;6.052;2023-11-21T11:07:13;12.17;81.31
80743;SHT31;70142;50.894;6.052;2023-11-21T11:09:49;12.16;80.79
80743;SHT31;70142;50.894;6.052;2023-11-21T11:12:24;12.09;81.60
80743;SHT31;70142;50.894;6.052;2023-11-21T11:15:01;11.99;81.88
80743;SHT31;70142;50.894;6.052;2023-11-21T11:17:37;11.69;82.18
80743;SHT31;70142;50.894;6.052;2023-11-21T11:20:13;11.68;82.48
80743;SHT31;70142;50.894;6.052;2023-11-21T11:23:04;11.51;82.14
80743;SHT31;70142;50.894;6.052;2023-11-21T11:26:09;11.36;81.97
80743;SHT31;70142;50.894;6.052;2023-11-21T11:28:57;11.38;83.48
80743;SHT31;70142;50.894;6.052;2023-11-21T11:31:40;11.51;82.58
80743;SHT31;70142;50.894;6.052;2023-11-21T11:34:26;11.22;83.08
80743;SHT31;70142;50.894;6.052;2023-11-21T11:37:04;11.21;83.47
80743;SHT31;70142;50.894;6.052;2023-11-21T11:39:41;11.31;83.09
80743;SHT31;70142;50.894;6.052;2023-11-21T11:42:18;11.42;82.62
80743;SHT31;70142;50.894;6.052;2023-11-21T11:44:52;11.62;82.28
80743;SHT31;70142;50.894;6.052;2023-11-21T11:47:29;11.83;81.95
80743;SHT31;70142;50.894;6.052;2023-11-21T11:50:08;11.83;81.64
80743;SHT31;70142;50.894;6.052;2023-11-21T11:52:46;12.03;81.18
80743;SHT31;70142;50.894;6.052;2023-11-21T11:55:22;11.99;80.13
80743;SHT31;70142;50.894;6.052;2023-11-21T11:57:58;11.78;81.54
80743;SHT31;70142;50.894;6.052;2023-11-21T12:00:34;11.82;80.74
80743;SHT31;70142;50.894;6.052;2023-11-21T12:03:09;11.89;81.33
80743;SHT31;70142;50.894;6.052;2023-11-21T12:05:46;12.17;81.19
80743;SHT31;70142;50.894;6.052;2023-11-21T12:08:21;12.33;79.54
80743;SHT31;70142;50.894;6.052;2023-11-21T12:10:55;12.22;79.92
80743;SHT31;70142;50.894;6.052;2023-11-21T12:13:30;12.12;80.66
80743;SHT31;70142;50.894;6.052;2023-11-21T12:16:04;12.10;79.98
80743;SHT31;70142;50.894;6.052;2023-11-21T12:18:38;11.92;80.76
80743;SHT31;70142;50.894;6.052;2023-11-21T12:21:11;11.92;81.11
80743;SHT31;70142;50.894;6.052;2023-11-21T12:23:46;12.03;80.78
80743;SHT31;70142;50.894;6.052;2023-11-21T12:26:23;11.85;80.38
80743;SHT31;70142;50.894;6.052;2023-11-21T12:28:58;11.73;81.63
80743;SHT31;70142;50.894;6.052;2023-11-21T12:31:31;11.68;82.18
80743;SHT31;70142;50.894;6.052;2023-11-21T12:34:05;11.79;81.24
80743;SHT31;70142;50.894;6.052;2023-11-21T12:36:39;11.78;81.68
80743;SHT31;70142;50.894;6.052;2023-11-21T12:39:12;11.69;81.81
80743;SHT31;70142;50.894;6.052;2023-11-21T12:41:46;11.72;82.12
80743;SHT31;70142;50.894;6.052;2023-11-21T12:44:21;11.81;82.02
80743;SHT31;70142;50.894;6.052;2023-11-21T12:46:55;11.75;81.74
80743;SHT31;70142;50.894;6.052;2023-11-21T12:49:29;11.73;81.68
80743;SHT31;70142;50.894;6.052;2023-11-21T12:52:05;11.69;81.89
80743;SHT31;70142;50.894;6.052;2023-11-21T12:54:41;11.76;82.12
80743;SHT31;70142;50.894;6.052;2023-11-21T12:57:14;11.82;81.66
80743;SHT31;70142;50.894;6.052;2023-11-21T12:59:49;11.82;81.75
80743;SHT31;70142;50.894;6.052;2023-11-21T13:02:27;12.02;80.82
80743;SHT31;70142;50.894;6.052;2023-11-21T13:05:00;12.09;80.23
80743;SHT31;70142;50.894;6.052;2023-11-21T13:07:41;12.07;80.87
80743;SHT31;70142;50.894;6.052;2023-11-21T13:10:18;12.16;80.27
80743;SHT31;70142;50.894;6.052;2023-11-21T13:12:52;12.17;80.19
80743;SHT31;70142;50.894;6.052;2023-11-21T13:15:28;12.15;80.55
80743;SHT31;70142;50.894;6.052;2023-11-21T13:18:03;12.20;80.08
80743;SHT31;70142;50.894;6.052;2023-11-21T13:20:37;12.23;79.75
80743;SHT31;70142;50.894;6.052;2023-11-21T13:23:12;12.26;80.52
80743;SHT31;70142;50.894;6.052;2023-11-21T13:25:45;12.30;80.00
80743;SHT31;70142;50.894;6.052;2023-11-21T13:28:33;12.26;80.32
80743;SHT31;70142;50.894;6.052;2023-11-21T13:31:08;12.26;80.59
80743;SHT31;70142;50.894;6.052;2023-11-21T13:33:53;12.29;81.01
80743;SHT31;70142;50.894;6.052;2023-11-21T13:36:36;12.25;80.70
80743;SHT31;70142;50.894;6.052;2023-11-21T13:39:09;12.07;81.34
80743;SHT31;70142;50.894;6.052;2023-11-21T13:41:47;11.99;82.05
80743;SHT31;70142;50.894;6.052;2023-11-21T13:44:26;11.97;81.41
80743;SHT31;70142;50.894;6.052;2023-11-21T13:47:10;11.97;82.29
80743;SHT31;70142;50.894;6.052;2023-11-21T13:49:43;12.00;82.08
80743;SHT31;70142;50.894;6.052;2023-11-21T13:52:16;11.92;82.32
80743;SHT31;70142;50.894;6.052;2023-11-21T13:54:54;11.86;82.77
80743;SHT31;70142;50.894;6.052;2023-11-21T13:57:28;11.85;83.22
80743;SHT31;70142;50.894;6.052;2023-11-21T14:00:01;12.02;83.34
80743;SHT31;70142;50.894;6.052;2023-11-21T14:02:44;12.20;81.99
80743;SHT31;70142;50.894;6.052;2023-11-21T14:05:17;12.22;82.36
80743;SHT31;70142;50.894;6.052;2023-11-21T14:08:01;12.19;82.73
80743;SHT31;70142;50.894;6.052;2023-11-21T14:10:36;12.05;82.94
80743;SHT31;70142;50.894;6.052;2023-11-21T14:13:14;11.93;83.36
80743;SHT31;70142;50.894;6.052;2023-11-21T14:15:49;11.97;83.71
80743;SHT31;70142;50.894;6.052;2023-11-21T14:18:30;12.06;83.76
80743;SHT31;70142;50.894;6.052;2023-11-21T14:21:10;12.05;83.29
80743;SHT31;70142;50.894;6.052;2023-11-21T14:23:45;12.16;82.67
80743;SHT31;70142;50.894;6.052;2023-11-21T14:26:20;12.03;83.03
80743;SHT31;70142;50.894;6.052;2023-11-21T14:28:53;11.90;83.45
80743;SHT31;70142;50.894;6.052;2023-11-21T14:31:26;11.85;83.65
80743;SHT31;70142;50.894;6.052;2023-11-21T14:34:08;11.87;84.12
80743;SHT31;70142;50.894;6.052;2023-11-21T14:36:45;11.96;84.14
80743;SHT31;70142;50.894;6.052;2023-11-21T14:39:18;11.90;83.42
80743;SHT31;70142;50.894;6.052;2023-11-21T14:41:57;11.75;83.65
80743;SHT31;70142;50.894;6.052;2023-11-21T14:44:31;11.72;84.30
80743;SHT31;70142;50.894;6.052;2023-11-21T14:47:09;11.72;84.19
80743;SHT31;70142;50.894;6.052;2023-11-21T14:49:48;11.73;84.38
80743;SHT31;70142;50.894;6.052;2023-11-21T14:52:28;11.72;84.34
80743;SHT31;70142;50.894;6.052;2023-11-21T14:55:06;11.62;84.77
80743;SHT31;70142;50.894;6.052;2023-11-21T14:57:53;11.52;84.96
80743;SHT31;70142;50.894;6.052;2023-11-21T15:00:26;11.42;85.14
80743;SHT31;70142;50.894;6.052;2023-11-21T15:03:16;11.27;85.68
80743;SHT31;70142;50.894;6.052;2023-11-21T15:06:11;11.32;85.71
80743;SHT31;70142;50.894;6.052;2023-11-21T15:08:58;11.22;85.86
80743;SHT31;70142;50.894;6.052;2023-11-21T15:11:49;11.39;85.28
80743;SHT31;70142;50.894;6.052;2023-11-21T15:14:26;11.48;84.71
80743;SHT31;70142;50.894;6.052;2023-11-21T15:17:03;11.52;84.37
80743;SHT31;70142;50.894;6.052;2023-11-21T15:19:37;11.46;84.56
80743;SHT31;70142;50.894;6.052;2023-11-21T15:22:11;11.39;84.88
80743;SHT31;70142;50.894;6.052;2023-11-21T15:24:48;11.44;85.24
80743;SHT31;70142;50.894;6.052;2023-11-21T15:27:21;11.46;85.22
80743;SHT31;70142;50.894;6.052;2023-11-21T15:29:55;11.52;84.62
80743;SHT31;70142;50.894;6.052;2023-11-21T15:32:28;11.44;84.88
80743;SHT31;70142;50.894;6.052;2023-11-21T15:35:01;11.46;85.09
80743;SHT31;70142;50.894;6.052;2023-11-21T15:37:36;11.35;84.88
80743;SHT31;70142;50.894;6.052;2023-11-21T15:40:10;11.24;85.22
80743;SHT31;70142;50.894;6.052;2023-11-21T15:42:46;11.18;85.56
80743;SHT31;70142;50.894;6.052;2023-11-21T15:45:20;11.21;85.71
80743;SHT31;70142;50.894;6.052;2023-11-21T15:47:56;11.27;85.26
80743;SHT31;70142;50.894;6.052;2023-11-21T15:50:30;11.22;85.40
80743;SHT31;70142;50.894;6.052;2023-11-21T15:53:05;11.10;85.93
80743;SHT31;70142;50.894;6.052;2023-11-21T15:55:39;11.06;86.35
80743;SHT31;70142;50.894;6.052;2023-11-21T15:58:14;11.08;86.14
80743;SHT31;70142;50.894;6.052;2023-11-21T16:00:48;11.10;86.21
80743;SHT31;70142;50.894;6.052;2023-11-21T16:03:21;11.17;85.91
80743;SHT31;70142;50.894;6.052;2023-11-21T16:05:55;11.06;86.05
80743;SHT31;70142;50.894;6.052;2023-11-21T16:08:29;11.04;86.37
80743;SHT31;70142;50.894;6.052;2023-11-21T16:11:03;11.10;86.05
80743;SHT31;70142;50.894;6.052;2023-11-21T16:13:36;11.07;86.01
80743;SHT31;70142;50.894;6.052;2023-11-21T16:16:13;11.08;86.07
80743;SHT31;70142;50.894;6.052;2023-11-21T16:18:49;11.08;86.17
80743;SHT31;70142;50.894;6.052;2023-11-21T16:21:22;11.17;85.93
80743;SHT31;70142;50.894;6.052;2023-11-21T16:23:56;11.22;85.64